»·PEaware :: WAT202 KLAS-KBUR

WAT202 :: KLAS-KBUR

FLIGHT INFORMATION

Flight Status: Arrived
Operator:
Walker Air Transport
More flights by this operator :: More flights under this callsign
Pilot: Nick L. (7253)
Aircraft: BOEING 727-100
(B721)
More flights by this aircraft type
Origin: KLAS Harry Reid Intl
United States
Destination: KBUR Bob Hope-Burbank
United States
More flights between these airports :: More routes between these airports
Route: MCCRN6 HEC LYNXX8
File this flight plan on PilotEdge
Remarks: RMK / SIMBRIEF
Altitude:
(Current/Filed)
32,000ft
Speed:
(Current/Filed)
460kts
Departed: 02-Mar-21 07:13 PM
Arrived: 02-Mar-21 08:03 PM
Distance/Time
Traveled:
193nm/0:50
Distance/Time
To Go:
Arrived

Flight Plot

Page will automatically refresh every two minutes.

Flight plan parsing failed; only flown route is shown


Map Options




Map Legend


Flown Route
Filed Route
Departure Airport
Arrival Airport
Navaid (VOR, NDB)
Fix

Horizontal Profiles

Position Reports

Time Latitude Longitude Heading Altitude Ground
Speed
02-Mar-21 18:51 36.098679 -115.161278 115 2190ft 0kts
02-Mar-21 18:52 36.098679 -115.161278 115 2190ft 0kts
02-Mar-21 18:53 36.098679 -115.161278 115 2190ft 0kts
02-Mar-21 18:54 36.098679 -115.161278 115 2190ft 0kts
02-Mar-21 18:55 36.098679 -115.161278 115 2190ft 0kts
02-Mar-21 18:56 36.098679 -115.161278 115 2190ft 0kts
02-Mar-21 18:57 36.098679 -115.161278 115 2190ft 0kts
02-Mar-21 18:58 36.098679 -115.161278 115 2190ft 0kts
02-Mar-21 18:59 36.098679 -115.161278 115 2190ft 0kts
02-Mar-21 19:00 36.098679 -115.161278 115 2190ft 0kts
02-Mar-21 19:01 36.098679 -115.161278 115 2190ft 0kts
02-Mar-21 19:02 36.098679 -115.161278 115 2190ft 0kts
02-Mar-21 19:03 36.098679 -115.161278 115 2190ft 0kts
02-Mar-21 19:04 36.098679 -115.161278 115 2190ft 0kts
02-Mar-21 19:05 36.098679 -115.161278 115 2190ft 0kts
02-Mar-21 19:06 36.098679 -115.161278 115 2190ft 0kts
02-Mar-21 19:07 36.098679 -115.161278 115 2190ft 0kts
02-Mar-21 19:08 36.098640 -115.161179 116 2190ft 2kts
02-Mar-21 19:09 36.099398 -115.158811 47 2190ft 10kts
02-Mar-21 19:10 36.099694 -115.157907 73 2190ft 5kts
02-Mar-21 19:11 36.099734 -115.157735 77 2190ft 2kts
02-Mar-21 19:12 36.094063 -115.159659 204 2190ft 106kts
02-Mar-21 19:13 36.052105 -115.182959 205 4273ft 188kts
02-Mar-21 19:14 35.996772 -115.214046 204 6736ft 259kts
02-Mar-21 19:15 35.924025 -115.259459 205 9670ft 288kts
02-Mar-21 19:16 35.851462 -115.306766 205 12212ft 296kts
02-Mar-21 19:17 35.778368 -115.353918 205 14541ft 301kts
02-Mar-21 19:18 35.703974 -115.401932 205 16565ft 308kts
02-Mar-21 19:19 35.623260 -115.453501 205 17617ft 339kts
02-Mar-21 19:20 35.539601 -115.509802 210 18952ft 355kts
02-Mar-21 19:21 35.457891 -115.578818 216 20764ft 351kts
02-Mar-21 19:22 35.386272 -115.659786 224 22224ft 356kts
02-Mar-21 19:23 35.323377 -115.754206 230 23526ft 361kts
02-Mar-21 19:24 35.264704 -115.854590 231 24657ft 365kts
02-Mar-21 19:25 35.204480 -115.953059 228 25875ft 361kts
02-Mar-21 19:26 35.138372 -116.046017 224 26699ft 364kts
02-Mar-21 19:27 35.066384 -116.133145 222 27485ft 367kts
02-Mar-21 19:28 34.986911 -116.210748 220 28220ft 367kts
02-Mar-21 19:29 34.917428 -116.301957 229 28810ft 370kts
02-Mar-21 19:30 34.848818 -116.395478 223 29549ft 371kts
02-Mar-21 19:31 34.789534 -116.495210 255 29475ft 375kts
02-Mar-21 19:32 34.781196 -116.622598 257 26993ft 376kts
02-Mar-21 19:33 34.767835 -116.747212 257 25057ft 369kts
02-Mar-21 19:34 34.754978 -116.868778 257 23346ft 360kts
02-Mar-21 19:35 34.747877 -116.992319 261 21795ft 369kts
02-Mar-21 19:36 34.742379 -117.116429 257 20535ft 369kts
02-Mar-21 19:37 34.729477 -117.238752 253 19370ft 362kts
02-Mar-21 19:38 34.710892 -117.358428 252 18267ft 358kts
02-Mar-21 19:39 34.693915 -117.477070 255 16808ft 356kts
02-Mar-21 19:40 34.681846 -117.595805 258 15023ft 353kts
02-Mar-21 19:41 34.671345 -117.713742 257 13883ft 349kts
02-Mar-21 19:42 34.658583 -117.829879 256 13012ft 348kts
02-Mar-21 19:43 34.644388 -117.950171 257 12983ft 368kts
02-Mar-21 19:44 34.630166 -118.072987 255 12984ft 351kts
02-Mar-21 19:45 34.607999 -118.177404 244 12983ft 298kts
02-Mar-21 19:46 34.584317 -118.274365 248 12740ft 301kts
02-Mar-21 19:47 34.561753 -118.373214 250 11231ft 299kts
02-Mar-21 19:48 34.540637 -118.467914 250 9959ft 285kts
02-Mar-21 19:49 34.518863 -118.561056 252 8100ft 298kts
02-Mar-21 19:50 34.495790 -118.656632 237 6950ft 275kts
02-Mar-21 19:51 34.436992 -118.653073 120 6265ft 253kts
02-Mar-21 19:52 34.380830 -118.631066 191 5091ft 227kts
02-Mar-21 19:53 34.319001 -118.645099 192 5004ft 222kts
02-Mar-21 19:54 34.267810 -118.668699 211 4476ft 189kts
02-Mar-21 19:55 34.223214 -118.693297 152 3638ft 183kts
02-Mar-21 19:56 34.202391 -118.634917 94 3598ft 206kts
02-Mar-21 19:57 34.200395 -118.569839 94 3592ft 188kts
02-Mar-21 19:58 34.199323 -118.506835 93 3044ft 186kts
02-Mar-21 19:59 34.198909 -118.453141 93 2190ft 132kts
02-Mar-21 20:00 34.198375 -118.409094 93 1477ft 131kts
02-Mar-21 20:01 34.197853 -118.365189 92 796ft 125kts
02-Mar-21 20:02 34.197233 -118.350236 200 789ft 2kts
02-Mar-21 20:03 34.197165 -118.350494 269 789ft 0kts
02-Mar-21 20:04 34.196840 -118.351039 184 789ft 0kts

Navigation Log

Ident Type
Flight plan parsing failed, navigation log unavailable